Time;durP1;ratioP1;P1;durP2;ratioP2;P2;SDS_P1;SDS_P2;PMS_P1;PMS_P2;Temp;Humidity;BMP_temperature;BMP_pressure;BME280_temperature;BME280_humidity;BME280_pressure;Samples;Min_cycle;Max_cycle;Signal;HPM_P1;HPM_P2
2023/09/02 00:00:15;;;;;;;4.93;1.63;;;21.00;67.50;;;;;;5002816;28;20038;-53
2023/09/02 00:02:42;;;;;;;1.50;1.40;;;21.00;67.50;;;;;;5008855;28;20046;-51
2023/09/02 00:05:09;;;;;;;2.22;1.42;;;21.00;67.40;;;;;;5009510;28;20129;-53
2023/09/02 00:07:38;;;;;;;2.70;1.75;;;21.00;67.20;;;;;;5002716;28;20097;-53
2023/09/02 00:10:08;;;;;;;3.40;1.83;;;21.00;67.10;;;;;;5006762;28;20808;-49
2023/09/02 00:12:38;;;;;;;1.55;1.23;;;20.90;66.80;;;;;;5008730;28;20108;-49
2023/09/02 00:15:06;;;;;;;2.03;1.38;;;20.90;66.60;;;;;;5010460;28;20046;-48
2023/09/02 00:17:36;;;;;;;2.17;1.48;;;20.90;66.60;;;;;;5008597;28;20054;-53
2023/09/02 00:20:08;;;;;;;2.53;1.80;;;20.80;66.60;;;;;;5012863;28;20092;-53
2023/09/02 00:22:34;;;;;;;2.42;1.70;;;20.80;66.40;;;;;;5008467;28;20622;-49
2023/09/02 00:25:02;;;;;;;2.22;1.48;;;20.70;66.20;;;;;;5004306;28;20073;-49
2023/09/02 00:27:32;;;;;;;4.05;1.77;;;20.70;66.10;;;;;;5011521;28;20620;-49
2023/09/02 00:30:01;;;;;;;2.60;1.58;;;20.60;66.10;;;;;;5006265;28;20578;-51
2023/09/02 00:32:29;;;;;;;2.70;1.38;;;20.60;66.20;;;;;;5010855;28;20065;-54
2023/09/02 00:34:55;;;;;;;1.60;1.50;;;20.50;66.00;;;;;;5012261;28;20056;-53
2023/09/02 00:37:24;;;;;;;1.40;1.20;;;20.50;66.00;;;;;;5009822;28;20038;-50
2023/09/02 00:39:51;;;;;;;2.40;1.58;;;20.50;66.10;;;;;;5009723;28;20080;-52
2023/09/02 00:42:21;;;;;;;3.63;1.48;;;20.40;66.30;;;;;;5011503;28;20045;-51
2023/09/02 00:44:53;;;;;;;2.33;1.40;;;20.40;66.30;;;;;;5010923;28;20045;-53
2023/09/02 00:47:26;;;;;;;1.80;1.60;;;20.30;66.60;;;;;;5010656;28;20042;-49
2023/09/02 00:49:53;;;;;;;3.15;1.92;;;20.30;66.60;;;;;;5011263;28;20447;-52
2023/09/02 00:52:32;;;;;;;2.67;1.58;;;20.30;66.60;;;;;;5011186;28;20415;-53
2023/09/02 00:55:01;;;;;;;4.78;1.55;;;20.20;66.90;;;;;;5008988;28;20069;-53
2023/09/02 00:57:31;;;;;;;2.55;1.38;;;20.20;66.70;;;;;;5007442;28;20042;-50
2023/09/02 01:00:08;;;;;;;3.42;1.50;;;20.20;66.60;;;;;;5006047;28;20049;-50
2023/09/02 01:02:36;;;;;;;1.88;1.30;;;20.10;66.80;;;;;;5010525;28;20045;-51
2023/09/02 01:05:04;;;;;;;3.97;1.55;;;20.10;66.70;;;;;;5010347;28;20042;-50
2023/09/02 01:07:33;;;;;;;1.50;1.33;;;20.10;66.80;;;;;;5004021;28;20050;-51
2023/09/02 01:10:04;;;;;;;3.05;1.30;;;20.00;66.70;;;;;;5006718;28;20123;-50
2023/09/02 01:12:31;;;;;;;2.33;1.35;;;20.00;66.90;;;;;;5010540;28;20034;-53
2023/09/02 01:14:58;;;;;;;3.80;1.92;;;20.00;67.00;;;;;;5011582;28;20045;-48
2023/09/02 01:17:26;;;;;;;3.33;1.52;;;20.00;67.20;;;;;;5006333;28;20061;-51
2023/09/02 01:19:58;;;;;;;4.65;1.58;;;20.00;67.40;;;;;;5005586;28;20037;-53
2023/09/02 01:22:41;;;;;;;1.85;1.30;;;19.90;67.40;;;;;;5010076;28;20546;-49
2023/09/02 01:25:25;;;;;;;3.05;1.35;;;19.90;68.10;;;;;;5024014;28;20050;-50
2023/09/02 01:27:57;;;;;;;5.63;1.88;;;19.90;68.30;;;;;;5023237;28;20531;-49
2023/09/02 01:30:30;;;;;;;2.15;1.70;;;19.90;68.30;;;;;;5003424;28;20103;-49
2023/09/02 01:32:58;;;;;;;3.88;1.85;;;19.90;68.50;;;;;;5006869;28;20527;-53
2023/09/02 01:35:29;;;;;;;4.88;2.05;;;19.90;68.60;;;;;;5011755;28;20042;-50
2023/09/02 01:37:58;;;;;;;8.20;2.25;;;19.90;68.90;;;;;;5005918;28;20053;-52
2023/09/02 01:40:27;;;;;;;3.30;1.70;;;20.00;69.00;;;;;;5004002;28;20038;-53
2023/09/02 01:43:02;;;;;;;3.47;1.55;;;20.00;69.00;;;;;;5006981;28;20412;-50
2023/09/02 01:45:42;;;;;;;4.45;1.70;;;20.00;69.00;;;;;;5010617;28;20651;-52
2023/09/02 01:48:10;;;;;;;4.03;1.58;;;20.10;69.40;;;;;;5005550;28;20069;-50
2023/09/02 01:50:39;;;;;;;5.40;3.28;;;20.10;68.90;;;;;;5010786;28;20655;-51
2023/09/02 01:53:20;;;;;;;1.83;1.40;;;20.10;69.00;;;;;;5009819;28;20038;-53
2023/09/02 01:55:50;;;;;;;2.95;1.60;;;20.10;69.10;;;;;;5009973;28;20121;-49
2023/09/02 01:58:18;;;;;;;1.98;1.48;;;20.10;68.50;;;;;;5006749;28;20495;-51
2023/09/02 02:00:46;;;;;;;3.75;1.80;;;20.10;68.40;;;;;;5006589;28;20052;-51
2023/09/02 02:03:23;;;;;;;4.75;2.22;;;20.10;68.40;;;;;;5008220;28;20074;-52
2023/09/02 02:05:55;;;;;;;1.83;1.50;;;20.10;68.70;;;;;;5009429;28;20057;-49
2023/09/02 02:08:58;;;;;;;1.70;1.60;;;20.10;68.70;;;;;;5002473;28;20535;-50
2023/09/02 02:11:28;;;;;;;2.80;1.70;;;20.10;69.00;;;;;;4995777;28;20046;-50
2023/09/02 02:14:02;;;;;;;4.30;2.20;;;20.00;68.30;;;;;;5009033;28;20042;-53
2023/09/02 02:16:44;;;;;;;2.15;1.40;;;20.00;68.10;;;;;;5005539;28;20038;-53
2023/09/02 02:19:13;;;;;;;4.13;1.45;;;20.00;68.30;;;;;;5008984;28;20037;-53
2023/09/02 02:21:40;;;;;;;1.80;1.50;;;19.90;67.80;;;;;;5008490;28;20488;-49
2023/09/02 02:24:16;;;;;;;3.78;1.63;;;19.90;67.60;;;;;;5008877;28;20072;-51
2023/09/02 02:26:44;;;;;;;1.77;1.40;;;19.80;67.50;;;;;;5009814;28;20100;-52
2023/09/02 02:29:11;;;;;;;2.03;1.35;;;19.80;67.60;;;;;;5006669;28;20504;-50
2023/09/02 02:31:40;;;;;;;2.25;1.38;;;19.80;67.50;;;;;;5009456;28;20058;-53
2023/09/02 02:34:11;;;;;;;3.00;1.42;;;19.70;67.40;;;;;;5008848;28;20050;-53
2023/09/02 02:36:38;;;;;;;2.22;1.60;;;19.70;68.10;;;;;;5008017;28;20396;-49
2023/09/02 02:39:11;;;;;;;2.08;1.50;;;19.70;67.60;;;;;;5003395;28;20642;-49
2023/09/02 02:41:37;;;;;;;1.63;1.27;;;19.60;67.60;;;;;;5008754;28;20065;-53
2023/09/02 02:44:09;;;;;;;2.05;1.83;;;19.60;67.90;;;;;;5008380;28;20405;-53
2023/09/02 02:46:36;;;;;;;2.20;1.13;;;19.60;68.00;;;;;;5004963;28;20100;-53
2023/09/02 02:49:05;;;;;;;2.50;1.70;;;19.50;67.90;;;;;;5007717;28;20074;-48
2023/09/02 02:51:38;;;;;;;2.63;1.27;;;19.60;68.00;;;;;;5015051;28;20100;-52
2023/09/02 02:54:08;;;;;;;2.53;1.70;;;19.60;68.30;;;;;;5006390;28;20509;-49
2023/09/02 02:56:37;;;;;;;3.95;1.25;;;19.50;68.10;;;;;;5009394;28;20038;-53
2023/09/02 02:59:06;;;;;;;1.73;1.10;;;19.50;68.10;;;;;;5005778;28;20181;-52
2023/09/02 03:01:37;;;;;;;1.88;1.33;;;19.50;68.00;;;;;;5011488;28;20062;-50
2023/09/02 03:04:06;;;;;;;5.22;1.45;;;19.50;68.30;;;;;;5008362;28;20096;-53
2023/09/02 03:06:35;;;;;;;3.25;1.60;;;19.50;68.20;;;;;;5009806;28;20041;-53
2023/09/02 03:09:09;;;;;;;4.53;1.38;;;19.50;68.40;;;;;;5005665;28;20036;-53
2023/09/02 03:11:36;;;;;;;4.15;1.77;;;19.50;68.40;;;;;;5009384;28;20132;-52
2023/09/02 03:14:06;;;;;;;2.40;1.48;;;19.50;68.50;;;;;;5007678;28;20050;-52
2023/09/02 03:16:36;;;;;;;3.60;1.50;;;19.50;68.90;;;;;;5014865;28;20053;-52
2023/09/02 03:19:06;;;;;;;2.72;1.05;;;19.50;68.80;;;;;;5008129;28;20045;-51
2023/09/02 03:21:32;;;;;;;2.72;1.50;;;19.50;68.90;;;;;;5008536;28;20034;-53
2023/09/02 03:23:59;;;;;;;3.63;1.90;;;19.50;68.90;;;;;;5008038;28;20041;-53
2023/09/02 03:26:28;;;;;;;3.97;1.83;;;19.50;68.90;;;;;;5007870;28;20455;-51
2023/09/02 03:28:55;;;;;;;3.17;1.73;;;19.50;68.80;;;;;;5005162;28;20050;-53
2023/09/02 03:31:27;;;;;;;3.25;1.50;;;19.40;68.60;;;;;;5007463;28;20413;-52
2023/09/02 03:33:56;;;;;;;5.82;1.92;;;19.40;68.50;;;;;;5019622;28;20042;-52
2023/09/02 03:36:23;;;;;;;1.65;1.55;;;19.40;68.70;;;;;;5008249;28;20461;-52
2023/09/02 03:38:49;;;;;;;2.72;1.52;;;19.40;68.40;;;;;;5006399;28;20042;-53
2023/09/02 03:41:23;;;;;;;2.08;1.70;;;19.30;68.30;;;;;;5004974;28;20037;-51
2023/09/02 03:43:51;;;;;;;5.70;1.80;;;19.30;68.50;;;;;;5007759;28;20124;-50
2023/09/02 03:46:18;;;;;;;2.58;1.45;;;19.30;68.40;;;;;;5007730;28;20041;-53
2023/09/02 03:48:48;;;;;;;2.85;1.52;;;19.30;68.60;;;;;;5007580;28;21257;-53
2023/09/02 03:51:17;;;;;;;3.22;1.80;;;19.20;68.70;;;;;;5010354;28;20042;-51
2023/09/02 03:53:52;;;;;;;5.15;2.28;;;19.20;69.10;;;;;;5047032;23;20053;-49
2023/09/02 03:56:21;;;;;;;4.15;1.73;;;19.20;69.10;;;;;;5042554;28;20037;-48
2023/09/02 03:58:48;;;;;;;2.10;1.80;;;19.20;69.30;;;;;;5030034;28;20038;-52
2023/09/02 04:01:16;;;;;;;3.40;1.98;;;19.10;69.60;;;;;;5028897;28;20045;-50
2023/09/02 04:03:44;;;;;;;1.90;1.80;;;19.10;69.70;;;;;;5030467;28;20044;-51
2023/09/02 04:06:12;;;;;;;9.85;4.35;;;19.10;70.00;;;;;;5026074;28;20602;-51
2023/09/02 04:08:46;;;;;;;2.85;1.90;;;19.10;70.10;;;;;;5032144;28;20046;-50
2023/09/02 04:11:13;;;;;;;2.30;2.10;;;19.10;70.40;;;;;;5031422;28;20046;-50
2023/09/02 04:13:45;;;;;;;2.38;1.70;;;19.10;70.20;;;;;;5030243;28;20052;-52
2023/09/02 04:16:15;;;;;;;3.45;2.35;;;19.10;70.20;;;;;;5011410;28;20043;-51
2023/09/02 04:18:43;;;;;;;4.35;2.38;;;19.10;69.90;;;;;;5045509;28;20522;-51
2023/09/02 04:21:12;;;;;;;2.35;1.92;;;19.10;69.80;;;;;;5030316;28;20044;-53
2023/09/02 04:23:42;;;;;;;3.25;2.15;;;19.10;69.60;;;;;;5028822;28;20069;-50
2023/09/02 04:26:12;;;;;;;3.20;1.75;;;19.00;69.50;;;;;;5031177;28;20046;-53
2023/09/02 04:28:40;;;;;;;3.10;1.92;;;19.00;69.40;;;;;;5042394;28;20037;-53
2023/09/02 04:31:07;;;;;;;4.22;1.85;;;19.00;69.40;;;;;;5022854;28;20061;-50
2023/09/02 04:33:37;;;;;;;2.42;1.73;;;19.00;69.50;;;;;;5046883;28;20053;-50
2023/09/02 04:36:05;;;;;;;2.13;1.92;;;19.00;69.70;;;;;;5030166;28;20050;-50
2023/09/02 04:38:39;;;;;;;2.60;1.90;;;19.00;70.60;;;;;;5025951;28;20038;-52
2023/09/02 04:41:07;;;;;;;4.30;2.20;;;19.00;70.30;;;;;;5030562;28;20525;-50
2023/09/02 04:43:35;;;;;;;4.18;2.03;;;19.00;70.40;;;;;;5030608;28;20038;-51
2023/09/02 04:46:03;;;;;;;2.85;2.13;;;19.00;70.60;;;;;;5027559;28;20038;-53
2023/09/02 04:48:34;;;;;;;3.73;2.93;;;19.00;70.80;;;;;;5044078;28;20052;-50
2023/09/02 04:51:03;;;;;;;3.25;2.13;;;19.00;70.80;;;;;;5030440;28;20048;-51
2023/09/02 04:53:31;;;;;;;3.22;2.03;;;19.10;71.00;;;;;;5029356;28;20046;-50
2023/09/02 04:56:03;;;;;;;5.20;1.90;;;19.10;71.10;;;;;;5027407;28;20049;-53
2023/09/02 04:58:31;;;;;;;2.63;1.90;;;19.10;71.00;;;;;;5028031;28;20033;-53
2023/09/02 05:01:11;;;;;;;1.90;1.67;;;19.10;70.90;;;;;;5042678;28;20040;-53
2023/09/02 05:03:50;;;;;;;2.20;1.77;;;19.10;71.30;;;;;;5030318;28;20026;-50
2023/09/02 05:06:20;;;;;;;2.50;1.80;;;19.10;70.80;;;;;;5022625;28;20045;-52
2023/09/02 05:08:54;;;;;;;2.75;2.00;;;19.10;70.80;;;;;;5024012;28;20088;-51
2023/09/02 05:11:24;;;;;;;5.47;2.10;;;19.10;71.10;;;;;;5030340;28;20064;-53
2023/09/02 05:13:53;;;;;;;3.92;2.08;;;19.20;71.10;;;;;;5008516;28;20037;-52
2023/09/02 05:16:20;;;;;;;3.38;1.88;;;19.20;71.20;;;;;;5021499;28;20057;-50
2023/09/02 05:18:46;;;;;;;2.42;2.03;;;19.20;71.20;;;;;;5030791;28;20037;-50
2023/09/02 05:21:14;;;;;;;3.40;2.30;;;19.20;71.80;;;;;;5030137;28;20091;-52
2023/09/02 05:23:42;;;;;;;3.00;2.05;;;19.20;71.20;;;;;;5029958;28;20722;-51
2023/09/02 05:26:09;;;;;;;3.58;2.28;;;19.30;71.80;;;;;;5029754;28;20037;-52
2023/09/02 05:28:38;;;;;;;2.60;2.40;;;19.30;71.20;;;;;;5027307;28;20099;-50
2023/09/02 05:31:05;;;;;;;3.88;2.75;;;19.30;71.40;;;;;;5026331;28;20061;-53
2023/09/02 05:33:31;;;;;;;3.58;2.75;;;19.40;71.60;;;;;;5031661;28;20076;-49
2023/09/02 05:36:04;;;;;;;2.50;2.30;;;19.40;71.70;;;;;;5028447;28;20049;-50
2023/09/02 05:38:32;;;;;;;2.25;1.92;;;19.40;71.70;;;;;;5023527;28;20033;-51
2023/09/02 05:40:59;;;;;;;2.72;2.53;;;19.50;71.80;;;;;;5028295;28;20088;-51
2023/09/02 05:43:32;;;;;;;3.00;2.20;;;19.50;71.80;;;;;;5023117;28;20061;-51
2023/09/02 05:46:03;;;;;;;3.05;2.00;;;19.50;72.00;;;;;;5024059;28;20047;-49
2023/09/02 05:48:29;;;;;;;2.38;1.98;;;19.60;71.90;;;;;;5025608;28;20046;-49
2023/09/02 05:50:57;;;;;;;5.15;2.58;;;19.60;71.90;;;;;;5022481;28;20037;-50
2023/09/02 05:53:26;;;;;;;2.53;2.28;;;19.70;72.00;;;;;;5024371;28;20492;-51
2023/09/02 05:55:57;;;;;;;1.75;1.65;;;19.70;72.00;;;;;;5029889;28;20045;-52
2023/09/02 05:58:25;;;;;;;2.38;2.17;;;19.70;71.90;;;;;;5028989;28;20632;-49
2023/09/02 06:00:52;;;;;;;2.38;2.17;;;19.80;72.00;;;;;;5024999;28;20045;-51
2023/09/02 06:03:18;;;;;;;3.38;2.22;;;19.80;71.90;;;;;;5031391;28;20055;-53
2023/09/02 06:05:46;;;;;;;3.55;2.05;;;19.90;71.90;;;;;;5028402;28;20096;-50
2023/09/02 06:08:12;;;;;;;4.68;2.08;;;20.00;72.00;;;;;;5020587;28;20088;-53
2023/09/02 06:10:39;;;;;;;4.22;1.92;;;20.00;71.90;;;;;;5023010;28;20069;-53
2023/09/02 06:13:10;;;;;;;3.55;2.00;;;20.00;71.90;;;;;;5025412;28;20041;-49
2023/09/02 06:15:37;;;;;;;2.33;1.90;;;20.00;71.90;;;;;;5020135;28;20136;-53
2023/09/02 06:18:08;;;;;;;3.70;2.10;;;20.10;71.90;;;;;;5023694;28;20100;-51
2023/09/02 06:20:38;;;;;;;3.92;2.30;;;20.10;71.80;;;;;;5029121;28;20072;-52
2023/09/02 06:23:05;;;;;;;5.03;2.10;;;20.20;72.10;;;;;;5026594;28;20423;-52
2023/09/02 06:25:31;;;;;;;1.98;1.83;;;20.20;71.90;;;;;;5026700;28;20045;-52
2023/09/02 06:27:59;;;;;;;2.55;2.22;;;20.30;72.60;;;;;;5029535;28;20049;-52
2023/09/02 06:30:27;;;;;;;3.05;2.38;;;20.30;71.90;;;;;;5020999;28;20052;-53
2023/09/02 06:32:57;;;;;;;5.57;2.58;;;20.40;71.90;;;;;;5028600;28;20121;-49
2023/09/02 06:35:24;;;;;;;3.45;2.33;;;20.40;71.90;;;;;;5027111;28;20530;-52
2023/09/02 06:37:50;;;;;;;3.13;2.67;;;20.50;71.90;;;;;;5011261;28;20044;-47
2023/09/02 06:40:17;;;;;;;2.58;2.38;;;20.50;71.90;;;;;;5020785;28;20045;-50
2023/09/02 06:42:44;;;;;;;4.68;2.05;;;20.60;71.90;;;;;;5026164;28;20103;-52
2023/09/02 06:45:10;;;;;;;3.60;2.45;;;20.60;71.70;;;;;;5024975;28;20038;-52
2023/09/02 06:47:37;;;;;;;3.72;2.25;;;20.60;71.60;;;;;;5024603;28;20065;-51
2023/09/02 06:50:04;;;;;;;4.70;2.40;;;20.70;71.60;;;;;;5028450;28;20037;-53
2023/09/02 06:52:31;;;;;;;2.47;1.98;;;20.70;71.60;;;;;;5029668;28;20041;-53
2023/09/02 06:54:57;;;;;;;4.03;2.15;;;20.70;71.60;;;;;;5026290;28;20091;-51
2023/09/02 06:57:24;;;;;;;3.90;2.42;;;20.80;71.70;;;;;;5030148;28;20049;-49
2023/09/02 06:59:51;;;;;;;2.75;1.92;;;20.80;71.60;;;;;;5023125;28;20040;-51
2023/09/02 07:02:17;;;;;;;5.57;2.00;;;20.90;71.80;;;;;;5028983;28;20037;-53
2023/09/02 07:04:48;;;;;;;4.60;2.13;;;20.90;71.60;;;;;;5029779;28;20654;-53
2023/09/02 07:07:16;;;;;;;4.57;1.80;;;21.00;71.80;;;;;;5028141;28;20121;-48
2023/09/02 07:09:43;;;;;;;4.20;2.42;;;21.00;71.50;;;;;;5029393;28;20037;-53
2023/09/02 07:12:09;;;;;;;3.10;2.53;;;21.10;71.70;;;;;;5028898;28;20103;-53
2023/09/02 07:14:36;;;;;;;3.00;1.92;;;21.10;71.60;;;;;;5029333;28;20045;-52
2023/09/02 07:17:03;;;;;;;3.28;1.83;;;21.20;71.60;;;;;;5027355;28;20065;-52
2023/09/02 07:19:29;;;;;;;3.30;1.75;;;21.30;71.70;;;;;;5030215;28;20107;-51
2023/09/02 07:21:56;;;;;;;3.00;1.95;;;21.30;71.60;;;;;;5026330;28;20060;-52
2023/09/02 07:24:24;;;;;;;3.05;1.98;;;21.40;71.70;;;;;;5026131;28;20080;-51
2023/09/02 07:26:51;;;;;;;4.03;1.70;;;21.50;71.60;;;;;;5032575;28;20472;-52
2023/09/02 07:29:18;;;;;;;2.47;1.48;;;21.50;71.40;;;;;;5032097;28;20071;-50
2023/09/02 07:31:44;;;;;;;4.07;1.70;;;21.60;71.20;;;;;;5032555;28;20563;-52
2023/09/02 07:34:11;;;;;;;2.13;1.63;;;21.60;71.90;;;;;;5034016;28;20448;-50
2023/09/02 07:36:40;;;;;;;3.22;1.75;;;21.70;71.30;;;;;;5031679;28;20107;-52
2023/09/02 07:39:07;;;;;;;1.80;1.70;;;21.80;71.20;;;;;;5028195;28;20069;-48
2023/09/02 07:41:33;;;;;;;3.92;1.60;;;21.80;70.90;;;;;;5024026;28;20038;-47
2023/09/02 07:44:00;;;;;;;2.10;1.70;;;21.90;71.20;;;;;;5026031;28;20033;-52
2023/09/02 07:46:27;;;;;;;2.35;1.60;;;22.00;71.10;;;;;;5028018;28;20053;-50
2023/09/02 07:48:53;;;;;;;2.72;1.73;;;22.10;70.90;;;;;;5029037;28;20468;-52
2023/09/02 07:51:20;;;;;;;3.92;1.60;;;22.20;70.90;;;;;;5031706;28;20154;-52
2023/09/02 07:53:47;;;;;;;1.77;1.67;;;22.20;70.70;;;;;;5033345;28;20054;-48
2023/09/02 07:56:15;;;;;;;3.33;1.52;;;22.30;70.60;;;;;;5028863;28;20443;-50
2023/09/02 07:58:48;;;;;;;2.63;1.70;;;22.40;70.40;;;;;;5028748;28;20491;-52
2023/09/02 08:01:17;;;;;;;2.03;1.67;;;22.50;70.30;;;;;;5028786;28;20041;-52
2023/09/02 08:03:46;;;;;;;1.90;1.73;;;22.50;70.30;;;;;;5033009;28;20046;-52
2023/09/02 08:06:18;;;;;;;3.47;2.00;;;22.60;69.90;;;;;;5029609;28;20113;-52
2023/09/02 08:08:51;;;;;;;2.10;1.47;;;22.70;69.70;;;;;;5031241;28;20124;-52
2023/09/02 08:11:18;;;;;;;3.63;1.98;;;22.80;69.60;;;;;;5031093;28;20312;-53
2023/09/02 08:13:47;;;;;;;2.70;1.67;;;22.80;69.40;;;;;;5033249;28;20103;-52
2023/09/02 08:16:18;;;;;;;2.72;1.73;;;22.90;69.10;;;;;;5028099;28;20121;-51
2023/09/02 08:18:45;;;;;;;2.30;1.65;;;22.90;68.90;;;;;;5032847;28;20041;-52
2023/09/02 08:21:14;;;;;;;3.20;2.13;;;23.00;69.10;;;;;;5032636;28;20087;-51
2023/09/02 08:23:41;;;;;;;4.60;1.75;;;23.00;68.90;;;;;;5030442;28;20069;-49
2023/09/02 08:26:14;;;;;;;2.22;1.52;;;23.10;69.10;;;;;;5031734;28;20064;-52
2023/09/02 08:28:42;;;;;;;2.17;1.42;;;23.20;68.90;;;;;;5031227;28;20075;-50
2023/09/02 08:31:11;;;;;;;4.05;2.10;;;23.30;68.90;;;;;;5030261;28;20037;-51
2023/09/02 08:33:39;;;;;;;3.05;1.90;;;23.40;69.00;;;;;;5032500;28;20045;-50
2023/09/02 08:36:16;;;;;;;4.35;2.03;;;23.40;68.60;;;;;;5031931;28;20112;-50
2023/09/02 08:38:43;;;;;;;2.53;1.90;;;23.60;68.60;;;;;;5026717;28;20077;-52
2023/09/02 08:41:22;;;;;;;2.50;1.55;;;23.60;68.10;;;;;;5025842;28;20041;-51
2023/09/02 08:43:55;;;;;;;2.60;1.57;;;23.70;67.70;;;;;;5032895;28;20092;-51
2023/09/02 08:46:26;;;;;;;3.25;1.65;;;23.80;67.70;;;;;;5025937;28;20296;-49
2023/09/02 08:48:58;;;;;;;2.10;1.42;;;23.80;67.30;;;;;;5031298;28;20064;-51
2023/09/02 08:51:28;;;;;;;3.00;1.77;;;23.90;67.00;;;;;;5031706;28;20045;-49
2023/09/02 08:53:56;;;;;;;2.58;1.67;;;24.00;67.20;;;;;;5012655;28;20142;-49
2023/09/02 08:56:26;;;;;;;4.28;1.80;;;24.00;67.00;;;;;;5029837;28;20454;-49
2023/09/02 08:58:53;;;;;;;2.20;1.60;;;24.10;66.70;;;;;;5030299;28;20124;-53
2023/09/02 09:01:21;;;;;;;2.30;1.52;;;24.10;66.50;;;;;;5029516;28;20045;-52
2023/09/02 09:03:53;;;;;;;1.70;1.45;;;24.20;66.20;;;;;;5030251;28;20526;-50
2023/09/02 09:06:22;;;;;;;2.50;1.95;;;24.20;66.10;;;;;;5028989;28;20041;-50
2023/09/02 09:08:51;;;;;;;2.10;1.90;;;24.30;65.80;;;;;;5027998;28;20049;-50
2023/09/02 09:11:19;;;;;;;2.03;1.92;;;24.30;65.60;;;;;;5029050;28;20092;-49
2023/09/02 09:13:48;;;;;;;2.17;1.70;;;24.40;65.70;;;;;;5030722;28;20049;-49
2023/09/02 09:16:19;;;;;;;3.03;1.45;;;24.50;65.80;;;;;;5027759;28;20049;-52
2023/09/02 09:18:48;;;;;;;2.10;1.90;;;24.50;66.00;;;;;;5028785;28;20061;-52
2023/09/02 09:21:15;;;;;;;4.57;2.10;;;24.50;65.80;;;;;;5029183;28;20112;-53
2023/09/02 09:23:42;;;;;;;4.78;2.10;;;24.60;65.90;;;;;;5023898;28;20136;-51
2023/09/02 09:26:13;;;;;;;6.78;2.03;;;24.70;65.40;;;;;;5027132;28;20038;-50
2023/09/02 09:28:52;;;;;;;3.13;1.83;;;24.70;64.80;;;;;;5028723;28;20073;-50
2023/09/02 09:31:20;;;;;;;4.35;1.85;;;24.90;64.70;;;;;;5027956;28;20041;-52
2023/09/02 09:33:54;;;;;;;2.40;1.60;;;24.90;65.00;;;;;;5029784;28;20107;-52
2023/09/02 09:36:22;;;;;;;1.73;1.63;;;25.00;64.80;;;;;;5029711;28;20100;-53
2023/09/02 09:38:55;;;;;;;2.03;1.88;;;25.00;64.80;;;;;;5028023;28;20069;-49
2023/09/02 09:41:25;;;;;;;2.10;1.90;;;25.10;64.40;;;;;;5026379;28;20091;-52
2023/09/02 09:44:12;;;;;;;1.98;1.80;;;25.00;64.30;;;;;;5032826;28;20042;-51
2023/09/02 09:46:54;;;;;;;3.90;1.65;;;25.00;64.50;;;;;;5020799;28;20056;-53
2023/09/02 09:49:27;;;;;;;2.20;1.77;;;25.00;64.60;;;;;;5030507;28;20235;-52
2023/09/02 09:51:59;;;;;;;3.40;1.45;;;25.00;64.60;;;;;;5030090;28;20396;-53
2023/09/02 09:54:40;;;;;;;2.97;1.63;;;25.00;64.70;;;;;;5027773;28;20053;-52
2023/09/02 09:57:13;;;;;;;2.40;2.00;;;25.00;65.20;;;;;;5026172;28;20049;-51
2023/09/02 09:59:51;;;;;;;4.78;1.85;;;25.10;64.80;;;;;;5026216;28;20112;-52
2023/09/02 10:02:20;;;;;;;3.22;2.20;;;25.10;65.10;;;;;;5025416;28;20061;-51
2023/09/02 10:04:54;;;;;;;2.55;1.63;;;25.10;65.00;;;;;;5031443;28;20095;-52
2023/09/02 10:07:32;;;;;;;1.70;1.60;;;25.20;64.80;;;;;;5025021;28;20464;-49
2023/09/02 10:10:01;;;;;;;2.00;1.80;;;25.20;64.50;;;;;;5026102;28;20057;-52
2023/09/02 10:12:33;;;;;;;2.33;1.48;;;25.20;64.80;;;;;;5028180;28;20576;-52
2023/09/02 10:15:05;;;;;;;5.15;1.55;;;25.30;64.70;;;;;;5028491;28;20077;-53
2023/09/02 10:17:34;;;;;;;2.20;1.85;;;25.40;64.70;;;;;;5030053;28;20145;-52
2023/09/02 10:20:01;;;;;;;1.98;1.70;;;25.40;65.00;;;;;;5025915;28;20797;-52
2023/09/02 10:22:31;;;;;;;1.33;1.23;;;25.50;64.70;;;;;;5030754;28;20057;-51
2023/09/02 10:25:01;;;;;;;3.85;1.90;;;25.60;64.80;;;;;;5026350;28;20029;-53
2023/09/02 10:27:36;;;;;;;2.92;1.42;;;25.70;65.30;;;;;;5025043;28;20034;-52
2023/09/02 10:30:06;;;;;;;2.35;1.75;;;25.80;65.00;;;;;;5025804;28;20076;-52
2023/09/02 10:32:45;;;;;;;2.30;1.58;;;26.00;64.90;;;;;;5029955;28;20072;-54
2023/09/02 10:35:19;;;;;;;3.25;1.88;;;26.10;63.80;;;;;;5026523;28;20045;-54
2023/09/02 10:38:02;;;;;;;3.22;1.73;;;26.20;63.60;;;;;;5025300;28;20095;-51
2023/09/02 10:40:39;;;;;;;1.67;1.50;;;26.30;63.20;;;;;;5023905;28;20497;-53
2023/09/02 10:43:06;;;;;;;2.90;2.10;;;26.30;63.20;;;;;;5030644;28;20041;-53
2023/09/02 10:45:33;;;;;;;1.50;1.40;;;26.30;63.20;;;;;;5028878;28;20128;-53
2023/09/02 10:48:01;;;;;;;1.63;1.35;;;26.40;62.80;;;;;;5025876;28;20056;-53
2023/09/02 10:50:29;;;;;;;4.13;1.70;;;26.40;62.90;;;;;;5025558;28;20052;-54
2023/09/02 10:53:01;;;;;;;2.80;1.52;;;26.50;62.70;;;;;;5026821;28;20059;-52
2023/09/02 10:55:57;;;;;;;3.65;1.60;;;26.50;62.00;;;;;;5026786;28;20048;-48
2023/09/02 10:58:26;;;;;;;3.17;1.73;;;26.50;61.70;;;;;;5027717;28;20084;-53
2023/09/02 11:00:53;;;;;;;1.50;1.40;;;26.50;61.90;;;;;;5025341;28;20041;-52
2023/09/02 11:03:49;;;;;;;3.35;1.45;;;26.60;62.10;;;;;;5029229;28;20087;-48
2023/09/02 11:06:17;;;;;;;2.35;1.58;;;26.60;62.10;;;;;;5028668;28;20029;-51
2023/09/02 11:08:48;;;;;;;1.98;1.33;;;26.60;62.00;;;;;;5022107;28;20049;-50
2023/09/02 11:11:16;;;;;;;2.42;1.80;;;26.60;62.10;;;;;;5026690;28;20430;-51
2023/09/02 11:14:12;;;;;;;1.60;1.30;;;26.70;62.70;;;;;;5030285;28;20058;-51
2023/09/02 11:16:42;;;;;;;2.53;1.33;;;26.70;61.60;;;;;;5018784;28;20610;-52
2023/09/02 11:19:11;;;;;;;1.52;1.23;;;26.80;61.60;;;;;;5028485;28;20076;-49
2023/09/02 11:21:42;;;;;;;2.00;1.15;;;26.80;61.40;;;;;;5029105;28;20041;-52
2023/09/02 11:24:19;;;;;;;1.75;1.38;;;26.90;61.60;;;;;;5028764;28;20061;-51
2023/09/02 11:26:56;;;;;;;2.28;1.52;;;26.90;60.80;;;;;;5024418;28;20046;-54
2023/09/02 11:29:28;;;;;;;3.30;1.33;;;27.00;61.20;;;;;;5024084;28;20080;-48
2023/09/02 11:32:03;;;;;;;2.25;1.45;;;27.10;61.30;;;;;;5028967;28;20050;-53
2023/09/02 11:34:31;;;;;;;2.80;1.13;;;27.10;61.20;;;;;;5026451;28;20115;-49
2023/09/02 11:37:01;;;;;;;1.42;1.30;;;27.20;61.10;;;;;;5022271;28;20096;-49
2023/09/02 11:39:31;;;;;;;1.30;1.20;;;27.30;60.30;;;;;;5029438;28;20045;-51
2023/09/02 11:42:12;;;;;;;3.58;1.60;;;27.30;60.20;;;;;;5021523;28;20064;-52
2023/09/02 11:44:52;;;;;;;1.58;1.33;;;27.40;59.80;;;;;;5020936;28;20057;-52
2023/09/02 11:47:19;;;;;;;2.08;1.23;;;27.50;59.60;;;;;;5023810;28;20079;-50
2023/09/02 11:49:47;;;;;;;1.50;1.40;;;27.50;59.50;;;;;;5021365;28;20588;-50
2023/09/02 11:52:14;;;;;;;1.35;1.25;;;27.50;59.00;;;;;;5021027;28;20046;-51
2023/09/02 11:54:46;;;;;;;1.55;1.15;;;27.60;59.50;;;;;;5025144;28;20044;-51
2023/09/02 11:57:17;;;;;;;1.40;1.30;;;27.70;58.90;;;;;;5028446;28;20064;-49
2023/09/02 11:59:44;;;;;;;3.13;1.35;;;27.70;58.50;;;;;;5025660;28;20046;-51
2023/09/02 12:02:15;;;;;;;3.03;1.60;;;27.80;59.30;;;;;;5028686;28;20128;-49
2023/09/02 12:04:44;;;;;;;1.42;1.33;;;27.80;58.90;;;;;;5029587;28;20049;-52
2023/09/02 12:07:11;;;;;;;1.33;1.20;;;27.80;58.20;;;;;;5022322;28;20052;-49
2023/09/02 12:09:46;;;;;;;1.88;1.05;;;27.80;58.40;;;;;;5027242;28;20033;-51
2023/09/02 12:12:15;;;;;;;3.65;1.30;;;27.80;58.70;;;;;;5025327;28;20076;-48
2023/09/02 12:14:47;;;;;;;1.57;1.10;;;27.80;58.70;;;;;;5024492;28;20045;-51
2023/09/02 12:17:14;;;;;;;1.98;1.55;;;27.80;58.70;;;;;;5027417;28;20073;-48
2023/09/02 12:19:43;;;;;;;1.40;1.33;;;27.80;59.00;;;;;;5033354;28;20050;-51
2023/09/02 12:22:11;;;;;;;2.20;1.15;;;27.80;58.90;;;;;;5032464;28;20041;-49
2023/09/02 12:24:40;;;;;;;2.13;1.00;;;27.80;58.70;;;;;;5030759;28;20091;-51
2023/09/02 12:27:10;;;;;;;2.70;1.33;;;27.80;58.80;;;;;;5032026;28;20072;-52
2023/09/02 12:29:37;;;;;;;2.00;1.40;;;27.80;59.10;;;;;;5028612;28;20096;-50
2023/09/02 12:32:08;;;;;;;2.50;1.50;;;27.90;58.60;;;;;;5031679;28;20045;-52
2023/09/02 12:34:38;;;;;;;2.67;1.38;;;27.90;58.90;;;;;;5026475;28;20533;-50
2023/09/02 12:37:20;;;;;;;2.17;1.42;;;27.90;58.70;;;;;;5030607;28;20096;-48
2023/09/02 12:39:47;;;;;;;2.13;1.38;;;28.00;58.40;;;;;;5032056;28;20125;-52
2023/09/02 12:42:19;;;;;;;1.95;1.30;;;28.00;58.80;;;;;;5026807;28;20454;-50
2023/09/02 12:45:06;;;;;;;1.23;1.02;;;28.10;58.80;;;;;;5027898;28;20033;-49
2023/09/02 12:47:37;;;;;;;1.92;1.20;;;28.10;58.20;;;;;;5030125;28;20038;-51
2023/09/02 12:50:07;;;;;;;1.40;1.15;;;28.20;58.00;;;;;;5029698;28;20041;-49
2023/09/02 12:52:34;;;;;;;1.25;1.10;;;28.20;58.00;;;;;;5031238;28;20472;-50
2023/09/02 12:55:05;;;;;;;1.63;1.20;;;28.30;58.40;;;;;;5032494;28;20044;-51
2023/09/02 12:57:35;;;;;;;1.55;1.40;;;28.40;58.60;;;;;;5029421;28;20144;-48
2023/09/02 13:00:09;;;;;;;1.25;1.02;;;28.50;58.00;;;;;;5024407;28;20044;-51
2023/09/02 13:02:36;;;;;;;1.98;1.60;;;28.60;57.10;;;;;;5024370;28;20041;-51